Time;durP1;ratioP1;P1;durP2;ratioP2;P2;SDS_P1;SDS_P2;PMS_P1;PMS_P2;Temp;Humidity;BMP_temperature;BMP_pressure;BME280_temperature;BME280_humidity;BME280_pressure;Samples;Min_cycle;Max_cycle;Signal;HPM_P1;HPM_P2
2022/10/23 00:01:29;;;;;;;10.00;4.07;;;16.80;99.90;;;;;;5015679;28;20165;-78
2022/10/23 00:04:01;;;;;;;7.93;3.33;;;16.80;99.90;;;;;;5016062;28;20164;-79
2022/10/23 00:06:27;;;;;;;9.35;3.97;;;16.80;99.90;;;;;;5015856;28;20700;-78
2022/10/23 00:08:53;;;;;;;12.63;3.78;;;16.80;99.90;;;;;;5015799;28;20161;-78
2022/10/23 00:11:22;;;;;;;11.40;4.50;;;16.90;99.90;;;;;;5015881;28;20281;-78
2022/10/23 00:13:48;;;;;;;18.95;4.20;;;16.80;99.90;;;;;;5014325;28;20658;-78
2022/10/23 00:16:14;;;;;;;4.60;3.20;;;16.80;99.90;;;;;;5015397;28;20188;-78
2022/10/23 00:18:40;;;;;;;8.20;3.17;;;16.80;99.90;;;;;;5015645;28;20622;-78
2022/10/23 00:21:09;;;;;;;6.07;3.30;;;16.70;99.90;;;;;;5015742;28;20175;-78
2022/10/23 00:23:35;;;;;;;12.07;3.92;;;16.70;99.90;;;;;;5015583;28;20160;-83
2022/10/23 00:26:01;;;;;;;5.63;3.40;;;16.70;99.90;;;;;;5015557;28;20216;-78
2022/10/23 00:28:27;;;;;;;3.75;2.75;;;16.70;99.90;;;;;;5015551;28;20169;-88
2022/10/23 00:30:53;;;;;;;7.82;4.10;;;16.70;99.90;;;;;;5015490;28;20176;-79
2022/10/23 00:33:18;;;;;;;9.68;4.68;;;16.70;99.90;;;;;;5014854;28;20164;-78
2022/10/23 00:35:44;;;;;;;9.35;2.70;;;16.70;99.90;;;;;;5014815;28;20351;-78
2022/10/23 00:38:10;;;;;;;6.57;2.78;;;16.70;99.90;;;;;;5014481;28;20168;-79
2022/10/23 00:40:36;;;;;;;14.70;2.83;;;16.60;99.90;;;;;;5015094;28;20734;-78
2022/10/23 00:43:03;;;;;;;3.92;2.80;;;16.60;99.90;;;;;;5014940;28;20164;-84
2022/10/23 00:45:32;;;;;;;6.28;2.08;;;16.50;99.90;;;;;;5015069;28;20208;-78
2022/10/23 00:47:59;;;;;;;6.47;2.60;;;16.50;99.90;;;;;;5028526;28;20232;-79
2022/10/23 00:50:27;;;;;;;8.02;2.25;;;16.60;99.90;;;;;;5030761;28;20517;-78
2022/10/23 00:52:54;;;;;;;8.57;2.03;;;16.70;99.90;;;;;;5014326;28;20165;-78
2022/10/23 00:55:22;;;;;;;4.45;2.20;;;16.80;99.90;;;;;;5014662;28;20499;-78
2022/10/23 00:57:49;;;;;;;3.80;1.80;;;16.80;99.90;;;;;;5014442;28;20167;-82
2022/10/23 01:00:20;;;;;;;5.15;2.30;;;16.80;99.90;;;;;;5014303;28;20185;-81
2022/10/23 01:02:45;;;;;;;4.55;2.33;;;16.80;99.90;;;;;;5014084;28;20248;-79
2022/10/23 01:05:11;;;;;;;13.23;2.38;;;16.90;99.90;;;;;;5014387;28;20284;-89
2022/10/23 01:08:00;;;;;;;7.25;1.95;;;17.10;99.90;;;;;;5014556;28;20195;-82
2022/10/23 01:10:50;;;;;;;10.20;2.33;;;16.90;99.90;;;;;;5014748;28;20184;-78
2022/10/23 01:13:19;;;;;;;8.10;2.85;;;16.90;99.90;;;;;;5015606;28;20197;-77
2022/10/23 01:15:55;;;;;;;8.27;2.25;;;17.00;99.90;;;;;;5014808;28;20277;-78
2022/10/23 01:18:36;;;;;;;8.27;2.60;;;17.00;99.90;;;;;;5014287;28;20535;-80
2022/10/23 01:21:08;;;;;;;5.00;2.50;;;16.90;99.90;;;;;;5013769;28;20168;-78
2022/10/23 01:23:55;;;;;;;9.23;2.30;;;16.90;99.90;;;;;;5014159;28;20675;-78
2022/10/23 01:26:49;;;;;;;4.53;1.88;;;16.90;99.90;;;;;;5012375;28;20224;-78
2022/10/23 01:29:20;;;;;;;6.45;2.40;;;16.90;99.90;;;;;;5011791;28;20173;-78
2022/10/23 01:31:54;;;;;;;4.68;2.33;;;16.90;99.90;;;;;;5011023;28;20596;-78
2022/10/23 01:34:27;;;;;;;6.00;1.98;;;16.90;99.90;;;;;;5012769;28;20164;-79
2022/10/23 01:36:54;;;;;;;2.45;1.77;;;16.90;99.90;;;;;;5012976;28;20242;-78
2022/10/23 01:39:34;;;;;;;5.35;2.25;;;16.90;99.90;;;;;;5012772;28;20165;-78
2022/10/23 01:42:09;;;;;;;5.00;1.90;;;16.90;99.90;;;;;;5011612;28;20538;-78
2022/10/23 01:44:41;;;;;;;6.97;1.70;;;16.90;99.90;;;;;;5012221;28;20171;-81
2022/10/23 01:47:08;;;;;;;3.50;1.50;;;17.00;99.90;;;;;;5010683;28;20283;-78
2022/10/23 01:49:36;;;;;;;8.75;2.15;;;17.00;99.90;;;;;;5011766;28;20566;-78
2022/10/23 01:52:06;;;;;;;2.80;1.73;;;16.90;99.90;;;;;;5012711;28;20259;-78
2022/10/23 01:54:37;;;;;;;3.10;1.63;;;17.00;99.90;;;;;;5011350;28;20590;-78
2022/10/23 01:57:07;;;;;;;5.97;1.45;;;17.00;99.90;;;;;;5013044;28;20234;-83
2022/10/23 01:59:43;;;;;;;2.65;1.60;;;17.10;99.90;;;;;;5013227;28;20643;-78
2022/10/23 02:02:12;;;;;;;1.52;1.40;;;17.10;99.90;;;;;;5013407;28;20172;-78
2022/10/23 02:04:44;;;;;;;2.20;1.52;;;17.00;99.90;;;;;;5011798;28;20176;-78
2022/10/23 02:07:09;;;;;;;3.35;1.80;;;17.10;99.90;;;;;;5012990;28;20287;-78
2022/10/23 02:09:35;;;;;;;4.18;1.40;;;17.00;99.90;;;;;;5013034;28;20254;-80
2022/10/23 02:12:32;;;;;;;6.43;1.35;;;17.00;99.90;;;;;;5013050;28;20171;-78
2022/10/23 02:15:08;;;;;;;4.18;1.60;;;17.00;99.90;;;;;;5013075;28;20207;-78
2022/10/23 02:17:50;;;;;;;3.03;1.55;;;17.10;99.90;;;;;;5013096;28;20574;-78
2022/10/23 02:20:32;;;;;;;10.27;1.50;;;17.20;99.90;;;;;;5013163;28;20161;-78
2022/10/23 02:23:19;;;;;;;3.13;1.40;;;17.10;99.90;;;;;;5011833;28;20515;-78
2022/10/23 02:26:01;;;;;;;3.55;1.80;;;17.00;99.90;;;;;;5010628;28;20204;-78
2022/10/23 02:28:37;;;;;;;6.13;1.48;;;16.90;99.90;;;;;;5011153;28;20690;-78
2022/10/23 02:31:04;;;;;;;4.80;1.80;;;16.90;99.90;;;;;;5011341;28;20253;-77
2022/10/23 02:33:31;;;;;;;4.63;1.52;;;17.00;99.90;;;;;;5013649;28;20172;-78
2022/10/23 02:35:57;;;;;;;5.90;1.67;;;16.90;99.90;;;;;;5010193;28;20192;-78
2022/10/23 02:38:36;;;;;;;2.55;1.30;;;16.90;99.90;;;;;;5011837;28;20173;-78
2022/10/23 02:41:11;;;;;;;6.35;1.77;;;16.90;99.90;;;;;;5012730;28;20303;-79
2022/10/23 02:43:55;;;;;;;4.47;1.85;;;16.90;99.90;;;;;;5013124;28;20168;-78
2022/10/23 02:46:26;;;;;;;8.98;1.30;;;16.90;99.90;;;;;;5011397;28;20212;-78
2022/10/23 02:49:12;;;;;;;1.98;1.30;;;16.90;99.90;;;;;;5012871;28;20207;-85
2022/10/23 02:51:49;;;;;;;4.55;1.55;;;16.90;99.90;;;;;;5012857;28;20196;-78
2022/10/23 02:54:46;;;;;;;6.03;1.35;;;16.90;99.90;;;;;;5012649;28;20172;-79
2022/10/23 02:57:11;;;;;;;4.28;1.35;;;17.00;99.90;;;;;;4997883;28;20204;-78
2022/10/23 02:59:49;;;;;;;2.72;1.33;;;17.00;99.90;;;;;;5012887;28;20185;-85
2022/10/23 03:02:22;;;;;;;9.57;2.05;;;16.90;99.90;;;;;;5015447;28;20692;-78
2022/10/23 03:04:49;;;;;;;4.25;1.50;;;16.90;99.90;;;;;;5016696;28;20692;-83
2022/10/23 03:07:18;;;;;;;3.05;1.30;;;17.00;99.90;;;;;;5015194;28;20192;-78
2022/10/23 03:09:43;;;;;;;5.40;1.63;;;17.00;99.90;;;;;;5016536;28;20156;-88
2022/10/23 03:12:09;;;;;;;5.15;1.63;;;17.00;99.90;;;;;;5016706;28;20774;-78
2022/10/23 03:14:35;;;;;;;3.30;1.52;;;17.00;99.90;;;;;;5026811;28;20192;-78
2022/10/23 03:17:00;;;;;;;4.85;1.45;;;17.20;99.90;;;;;;5022014;28;20220;-78
2022/10/23 03:19:26;;;;;;;13.23;1.50;;;17.20;99.90;;;;;;5016193;28;20165;-78
2022/10/23 03:21:51;;;;;;;3.58;1.50;;;17.20;99.90;;;;;;5015797;28;20183;-78
2022/10/23 03:24:17;;;;;;;3.55;1.60;;;17.20;99.90;;;;;;5016106;28;20168;-78
2022/10/23 03:26:43;;;;;;;3.72;1.42;;;17.20;99.90;;;;;;5016030;28;20675;-78
2022/10/23 03:29:08;;;;;;;6.22;1.35;;;17.10;99.90;;;;;;5016122;28;20204;-78
2022/10/23 03:31:34;;;;;;;3.95;1.55;;;17.10;99.90;;;;;;5016544;28;20169;-78
2022/10/23 03:33:59;;;;;;;2.85;1.65;;;17.10;99.90;;;;;;5016002;28;20661;-78
2022/10/23 03:36:25;;;;;;;6.70;1.48;;;17.20;99.90;;;;;;5015893;28;20188;-79
2022/10/23 03:38:51;;;;;;;3.95;1.35;;;17.10;99.90;;;;;;5015875;28;20161;-78
2022/10/23 03:41:16;;;;;;;4.22;1.48;;;17.10;99.90;;;;;;5015488;28;20169;-78
2022/10/23 03:43:42;;;;;;;6.25;1.70;;;17.10;99.90;;;;;;5016097;28;20698;-78
2022/10/23 03:46:11;;;;;;;2.72;1.35;;;17.10;99.90;;;;;;5015852;28;20223;-78
2022/10/23 03:48:37;;;;;;;1.58;1.10;;;17.00;99.90;;;;;;5014376;28;20645;-78
2022/10/23 03:51:04;;;;;;;6.13;1.65;;;16.90;99.90;;;;;;5014331;28;20179;-80
2022/10/23 03:53:30;;;;;;;10.52;1.55;;;16.90;99.90;;;;;;5014466;28;20523;-78
2022/10/23 03:55:55;;;;;;;3.97;1.48;;;16.90;99.90;;;;;;5014621;28;20188;-78
2022/10/23 03:58:21;;;;;;;3.53;1.38;;;16.90;99.90;;;;;;5014638;28;20762;-78
2022/10/23 04:00:47;;;;;;;11.82;1.73;;;16.90;99.90;;;;;;5014714;28;20191;-78
2022/10/23 04:03:12;;;;;;;2.15;1.27;;;16.90;99.90;;;;;;5014962;28;20276;-79
2022/10/23 04:05:39;;;;;;;5.90;1.63;;;16.90;99.90;;;;;;5014939;28;20204;-78
2022/10/23 04:08:05;;;;;;;1.75;1.33;;;16.90;99.90;;;;;;5015654;28;20165;-78
2022/10/23 04:10:30;;;;;;;3.00;1.50;;;16.90;99.90;;;;;;5015536;28;20191;-78
2022/10/23 04:12:56;;;;;;;4.70;1.25;;;16.90;99.90;;;;;;5014383;28;20529;-78
2022/10/23 04:15:21;;;;;;;2.45;1.55;;;16.90;99.90;;;;;;5013828;28;20230;-78
2022/10/23 04:17:47;;;;;;;3.15;1.20;;;16.90;99.90;;;;;;5013955;28;20164;-78
2022/10/23 04:20:13;;;;;;;5.25;1.30;;;16.90;99.90;;;;;;5015251;28;20187;-78
2022/10/23 04:22:38;;;;;;;2.83;1.50;;;16.80;99.90;;;;;;5014078;28;20172;-79
2022/10/23 04:25:04;;;;;;;1.92;1.40;;;16.90;99.90;;;;;;5015169;28;20192;-78
2022/10/23 04:27:30;;;;;;;5.53;1.42;;;16.90;99.90;;;;;;5014944;28;20192;-78
2022/10/23 04:29:55;;;;;;;3.60;1.52;;;16.80;99.90;;;;;;5015081;28;20165;-78
2022/10/23 04:32:21;;;;;;;2.88;1.50;;;16.90;99.90;;;;;;5014922;28;20200;-78
2022/10/23 04:34:46;;;;;;;5.47;1.63;;;16.90;99.90;;;;;;5013939;28;20627;-79
2022/10/23 04:37:12;;;;;;;4.50;1.75;;;16.90;99.90;;;;;;5014772;28;20226;-79
2022/10/23 04:39:37;;;;;;;3.53;1.33;;;16.90;99.90;;;;;;5014823;28;20668;-79
2022/10/23 04:42:03;;;;;;;5.22;1.45;;;16.80;99.90;;;;;;5014386;28;20645;-78
2022/10/23 04:44:29;;;;;;;6.93;1.83;;;16.70;99.90;;;;;;5014714;28;20161;-77
2022/10/23 04:46:54;;;;;;;4.43;1.45;;;16.70;99.90;;;;;;5014552;28;20246;-78
2022/10/23 04:49:20;;;;;;;2.30;1.35;;;16.70;99.90;;;;;;5014826;28;20169;-78
2022/10/23 04:51:45;;;;;;;6.32;1.58;;;16.70;99.90;;;;;;5014886;28;20180;-88
2022/10/23 04:54:11;;;;;;;5.68;1.50;;;16.70;99.90;;;;;;5014381;28;20172;-85
2022/10/23 04:56:36;;;;;;;3.53;1.60;;;16.80;99.90;;;;;;5014416;28;20743;-78
2022/10/23 04:59:02;;;;;;;2.47;1.60;;;16.70;99.90;;;;;;5014431;28;20566;-86
2022/10/23 05:01:28;;;;;;;2.00;1.60;;;16.80;99.90;;;;;;5014473;28;20165;-78
2022/10/23 05:03:55;;;;;;;2.15;1.55;;;16.70;99.90;;;;;;5012983;28;20227;-78
2022/10/23 05:06:21;;;;;;;1.58;1.45;;;16.60;99.90;;;;;;5012639;28;20658;-78
2022/10/23 05:08:46;;;;;;;6.82;1.55;;;16.60;99.90;;;;;;5014148;28;20196;-78
2022/10/23 05:11:12;;;;;;;1.67;1.58;;;16.60;99.90;;;;;;5014258;28;20173;-78
2022/10/23 05:13:37;;;;;;;1.80;1.33;;;16.60;99.90;;;;;;5014214;28;20169;-78
2022/10/23 05:16:03;;;;;;;2.58;1.58;;;16.70;99.90;;;;;;5013870;28;20200;-78
2022/10/23 05:18:36;;;;;;;8.90;3.72;;;16.80;99.90;;;;;;5013592;28;20223;-79
2022/10/23 05:21:13;;;;;;;1.42;1.33;;;16.70;99.90;;;;;;5014230;28;20260;-78
2022/10/23 05:23:41;;;;;;;7.47;1.50;;;16.60;99.90;;;;;;5014009;28;20324;-80
2022/10/23 05:26:07;;;;;;;4.78;1.75;;;16.80;99.90;;;;;;5013827;28;20212;-78
2022/10/23 05:28:33;;;;;;;3.83;2.10;;;16.80;99.90;;;;;;5013896;28;20251;-78
2022/10/23 05:31:01;;;;;;;3.05;1.80;;;16.90;99.90;;;;;;5013785;28;20221;-78
2022/10/23 05:33:28;;;;;;;5.03;1.80;;;17.00;99.90;;;;;;5013660;28;20165;-79
2022/10/23 05:35:54;;;;;;;5.07;1.77;;;17.00;99.90;;;;;;5013602;28;20184;-78
2022/10/23 05:38:20;;;;;;;3.03;2.03;;;16.90;99.90;;;;;;5013801;28;20530;-78
2022/10/23 05:40:46;;;;;;;2.70;1.63;;;16.80;99.90;;;;;;5014075;28;20169;-78
2022/10/23 05:43:11;;;;;;;4.65;1.25;;;16.70;99.90;;;;;;5013774;28;20311;-78
2022/10/23 05:45:37;;;;;;;6.60;1.75;;;16.80;99.90;;;;;;5013367;28;20200;-78
2022/10/23 05:48:03;;;;;;;11.52;1.90;;;16.80;99.90;;;;;;5013250;28;20622;-79
2022/10/23 05:50:28;;;;;;;6.50;2.30;;;16.70;99.90;;;;;;5013365;28;20169;-78
2022/10/23 05:52:54;;;;;;;6.07;1.83;;;16.80;99.90;;;;;;5013442;28;20168;-78
2022/10/23 05:55:20;;;;;;;6.68;1.60;;;16.90;99.90;;;;;;5012990;28;20176;-79
2022/10/23 05:57:45;;;;;;;6.57;1.90;;;16.70;99.90;;;;;;5013309;28;20547;-77
2022/10/23 06:00:11;;;;;;;2.80;1.90;;;16.70;99.90;;;;;;5013588;28;20172;-79
2022/10/23 06:02:37;;;;;;;6.45;1.77;;;16.70;99.90;;;;;;5013204;28;20164;-81
2022/10/23 06:05:03;;;;;;;2.92;1.90;;;16.80;99.90;;;;;;5013318;28;20280;-82
2022/10/23 06:07:29;;;;;;;2.58;2.08;;;16.90;99.90;;;;;;5011961;28;20665;-79
2022/10/23 06:09:55;;;;;;;2.80;1.75;;;17.00;99.90;;;;;;5013338;28;20173;-79
2022/10/23 06:12:21;;;;;;;2.58;1.65;;;17.10;99.90;;;;;;5012601;28;20176;-88
2022/10/23 06:14:47;;;;;;;11.55;1.88;;;17.10;99.90;;;;;;5013023;28;20214;-84
2022/10/23 06:17:13;;;;;;;4.50;2.30;;;17.10;99.90;;;;;;5011419;28;20199;-79
2022/10/23 06:19:38;;;;;;;6.63;2.53;;;16.90;99.90;;;;;;5013297;28;20520;-79
2022/10/23 06:22:04;;;;;;;2.17;1.98;;;16.80;99.90;;;;;;5013154;28;20222;-82
2022/10/23 06:24:30;;;;;;;2.42;1.80;;;16.70;99.90;;;;;;5011561;28;20215;-86
2022/10/23 06:26:56;;;;;;;2.75;1.98;;;16.70;99.90;;;;;;5012159;28;20683;-86
2022/10/23 06:29:21;;;;;;;3.30;1.70;;;16.80;99.90;;;;;;5012452;28;20207;-79
2022/10/23 06:31:47;;;;;;;2.42;1.77;;;16.70;99.90;;;;;;5012364;28;20191;-80
2022/10/23 06:34:14;;;;;;;8.95;2.08;;;16.80;99.90;;;;;;5012425;28;20619;-79
2022/10/23 06:36:39;;;;;;;5.40;1.98;;;16.70;99.90;;;;;;5012242;28;20222;-78
2022/10/23 06:39:06;;;;;;;5.95;2.05;;;16.70;99.90;;;;;;5012672;28;20188;-78
2022/10/23 06:41:31;;;;;;;11.15;1.88;;;16.80;99.90;;;;;;5012763;28;20298;-79
2022/10/23 06:43:57;;;;;;;8.20;2.13;;;16.70;99.90;;;;;;5012812;28;20619;-79
2022/10/23 06:46:25;;;;;;;2.47;1.42;;;16.60;99.90;;;;;;5012217;28;20212;-78
2022/10/23 06:48:52;;;;;;;3.45;1.88;;;16.70;99.90;;;;;;5012304;28;20232;-79
2022/10/23 06:51:18;;;;;;;8.05;1.80;;;16.80;99.90;;;;;;5012298;28;20175;-78
2022/10/23 06:53:44;;;;;;;10.43;1.73;;;16.70;99.90;;;;;;5011122;28;20533;-78
2022/10/23 06:56:10;;;;;;;9.05;1.88;;;16.80;99.90;;;;;;5012769;28;20185;-89
2022/10/23 06:58:39;;;;;;;4.47;1.45;;;16.90;99.90;;;;;;5013184;28;20204;-82
2022/10/23 07:01:07;;;;;;;5.10;1.58;;;16.90;99.90;;;;;;5013131;28;20176;-79
2022/10/23 07:03:33;;;;;;;6.68;1.58;;;17.10;99.90;;;;;;5012659;28;20172;-80
2022/10/23 07:06:07;;;;;;;2.33;1.83;;;17.00;99.90;;;;;;5009716;28;20728;-79
2022/10/23 07:08:32;;;;;;;2.67;2.25;;;16.90;99.90;;;;;;5011123;28;20165;-80
2022/10/23 07:11:03;;;;;;;3.78;1.45;;;16.90;99.90;;;;;;5011227;28;20172;-79
2022/10/23 07:13:29;;;;;;;5.53;1.50;;;16.90;99.90;;;;;;5011240;28;20168;-78
2022/10/23 07:15:54;;;;;;;2.75;1.60;;;17.00;99.90;;;;;;5011466;28;20200;-77
2022/10/23 07:18:20;;;;;;;3.65;1.60;;;17.00;99.90;;;;;;5011934;28;20259;-78
2022/10/23 07:20:48;;;;;;;3.45;1.63;;;17.10;99.90;;;;;;5011902;28;20180;-80
2022/10/23 07:23:15;;;;;;;2.95;1.83;;;17.10;99.90;;;;;;5011135;28;20175;-79
2022/10/23 07:25:40;;;;;;;2.35;1.20;;;17.10;99.90;;;;;;5012145;28;20204;-77
2022/10/23 07:28:06;;;;;;;5.95;1.50;;;17.20;99.90;;;;;;5012118;28;20171;-78
2022/10/23 07:30:32;;;;;;;3.80;1.48;;;17.40;99.90;;;;;;5012224;28;20255;-82
2022/10/23 07:32:57;;;;;;;1.65;1.50;;;17.50;99.90;;;;;;5012392;28;20168;-80
2022/10/23 07:35:23;;;;;;;3.85;1.55;;;17.60;99.90;;;;;;5012255;28;20177;-78
2022/10/23 07:37:48;;;;;;;3.80;1.73;;;17.40;99.90;;;;;;5012451;28;20179;-78
2022/10/23 07:40:16;;;;;;;7.13;2.72;;;17.50;99.90;;;;;;5012314;28;20169;-80
2022/10/23 07:42:41;;;;;;;5.20;1.60;;;17.70;99.90;;;;;;5012118;28;20156;-80
2022/10/23 07:45:08;;;;;;;5.85;1.65;;;17.80;99.90;;;;;;5010646;28;20196;-81
2022/10/23 07:47:33;;;;;;;3.92;1.40;;;17.80;99.90;;;;;;5013240;28;20200;-89
2022/10/23 07:49:59;;;;;;;10.13;1.55;;;17.70;99.90;;;;;;5017264;28;20296;-89
2022/10/23 07:52:26;;;;;;;2.08;1.50;;;17.70;99.90;;;;;;5017159;28;20611;-95
2022/10/23 07:54:51;;;;;;;2.03;1.13;;;17.70;99.90;;;;;;5015860;28;20168;-79
2022/10/23 07:57:18;;;;;;;1.80;1.30;;;17.70;99.90;;;;;;5015424;28;20184;-80
2022/10/23 07:59:44;;;;;;;9.32;1.67;;;17.70;99.90;;;;;;5015605;28;20193;-88
2022/10/23 08:02:14;;;;;;;5.53;1.50;;;17.70;99.90;;;;;;5015666;28;20203;-78
2022/10/23 08:04:39;;;;;;;1.80;1.40;;;17.80;99.90;;;;;;5015301;28;20232;-82
2022/10/23 08:07:05;;;;;;;1.60;1.30;;;17.70;99.90;;;;;;5016377;28;20770;-82
2022/10/23 08:09:33;;;;;;;1.88;1.70;;;17.80;99.90;;;;;;5014984;28;20172;-90
2022/10/23 08:11:59;;;;;;;5.20;1.45;;;17.80;99.90;;;;;;5011924;28;20180;-93
2022/10/23 08:14:24;;;;;;;5.93;2.15;;;17.80;99.90;;;;;;5006896;28;20184;-86
2022/10/23 08:16:50;;;;;;;1.88;1.10;;;17.80;99.90;;;;;;5013283;28;20197;-82
2022/10/23 08:19:16;;;;;;;2.47;1.45;;;17.90;99.90;;;;;;4998988;28;20177;-83
2022/10/23 08:21:42;;;;;;;7.50;1.52;;;18.00;99.90;;;;;;4997195;28;20185;-82
2022/10/23 08:24:12;;;;;;;2.72;1.60;;;17.90;99.90;;;;;;4995716;28;20610;-82
2022/10/23 08:26:38;;;;;;;2.88;1.70;;;17.90;99.90;;;;;;4994021;28;20236;-78
2022/10/23 08:29:04;;;;;;;4.82;1.40;;;17.90;99.90;;;;;;4995615;28;20213;-91
2022/10/23 08:31:29;;;;;;;12.82;1.50;;;18.00;99.90;;;;;;4995729;28;20169;-77
2022/10/23 08:33:55;;;;;;;2.78;1.90;;;17.90;99.90;;;;;;4994773;28;20169;-78
2022/10/23 08:36:22;;;;;;;6.35;1.85;;;18.00;99.90;;;;;;4994434;28;20250;-80
2022/10/23 08:38:48;;;;;;;4.57;1.98;;;17.90;99.90;;;;;;4995439;28;20168;-77
2022/10/23 08:41:24;;;;;;;8.20;1.40;;;17.80;99.90;;;;;;4995524;28;20189;-79
2022/10/23 08:44:16;;;;;;;4.80;1.70;;;17.90;99.90;;;;;;4995244;28;20203;-77
2022/10/23 08:46:46;;;;;;;3.00;1.80;;;18.10;99.90;;;;;;4991745;28;20730;-76
2022/10/23 08:49:30;;;;;;;4.57;1.95;;;18.00;99.90;;;;;;4994055;28;20170;-77
2022/10/23 08:51:59;;;;;;;2.75;1.73;;;18.10;99.90;;;;;;4994962;28;20173;-77
2022/10/23 08:54:35;;;;;;;2.70;1.90;;;18.30;99.90;;;;;;4977294;28;20177;-76
2022/10/23 08:57:10;;;;;;;6.53;1.65;;;18.40;99.90;;;;;;4994582;28;20332;-76
2022/10/23 08:59:42;;;;;;;19.55;2.28;;;18.40;99.90;;;;;;4994281;28;20165;-77
2022/10/23 09:02:25;;;;;;;2.88;2.05;;;18.40;99.90;;;;;;4994214;28;20274;-76
2022/10/23 09:04:52;;;;;;;4.65;1.77;;;18.40;99.90;;;;;;4994492;28;20165;-77
2022/10/23 09:07:34;;;;;;;4.18;1.70;;;18.30;99.90;;;;;;4994316;28;20243;-77
2022/10/23 09:10:16;;;;;;;3.08;1.50;;;18.20;99.90;;;;;;4994512;28;20176;-84
2022/10/23 09:12:42;;;;;;;6.03;1.25;;;18.40;99.90;;;;;;4994787;28;20169;-82
2022/10/23 09:15:30;;;;;;;4.90;1.95;;;18.50;99.90;;;;;;4994374;28;20188;-77
2022/10/23 09:18:06;;;;;;;3.38;1.63;;;18.50;99.90;;;;;;4993126;28;20535;-83
2022/10/23 09:20:34;;;;;;;6.00;2.20;;;18.50;99.90;;;;;;4992965;28;20210;-77
2022/10/23 09:23:05;;;;;;;11.90;1.83;;;18.50;99.90;;;;;;4993569;28;20690;-77
2022/10/23 09:25:37;;;;;;;4.50;2.22;;;18.50;99.90;;;;;;4992863;28;20209;-77
2022/10/23 09:28:03;;;;;;;5.28;1.60;;;18.70;99.90;;;;;;4994422;28;20172;-78
2022/10/23 09:30:38;;;;;;;4.32;2.15;;;18.70;99.90;;;;;;4994508;28;20173;-81
2022/10/23 09:33:17;;;;;;;9.52;2.17;;;19.00;99.90;;;;;;4992825;28;20185;-78
2022/10/23 09:36:04;;;;;;;2.50;1.90;;;19.10;99.90;;;;;;4995426;28;20188;-77
2022/10/23 09:38:31;;;;;;;6.05;2.05;;;19.00;99.90;;;;;;4997921;28;20173;-78
2022/10/23 09:41:16;;;;;;;2.70;2.50;;;19.00;99.90;;;;;;4994460;28;20173;-77
2022/10/23 09:43:42;;;;;;;7.95;1.90;;;19.10;99.90;;;;;;4993812;28;20165;-80
2022/10/23 09:46:09;;;;;;;4.93;2.33;;;19.20;99.90;;;;;;4992878;28;20216;-85
2022/10/23 09:48:36;;;;;;;12.75;2.30;;;19.00;99.90;;;;;;4994207;28;20154;-79
2022/10/23 09:51:11;;;;;;;5.28;1.60;;;18.90;99.90;;;;;;4996384;28;20165;-78
2022/10/23 09:53:50;;;;;;;6.03;1.98;;;18.90;99.90;;;;;;4996438;28;20161;-77
2022/10/23 09:56:26;;;;;;;5.28;2.90;;;19.00;99.90;;;;;;4994476;28;20327;-76
2022/10/23 09:59:10;;;;;;;10.93;2.10;;;18.90;99.90;;;;;;5008689;28;20177;-79
2022/10/23 10:01:49;;;;;;;1.92;1.73;;;19.10;99.90;;;;;;4993613;28;20177;-76
2022/10/23 10:04:16;;;;;;;8.82;1.98;;;19.30;99.90;;;;;;4993898;28;20177;-84
2022/10/23 10:06:42;;;;;;;5.50;1.70;;;19.40;99.90;;;;;;4993205;28;20286;-76
2022/10/23 10:09:13;;;;;;;7.93;2.13;;;19.50;99.90;;;;;;4992301;28;20168;-77
2022/10/23 10:11:41;;;;;;;2.92;1.90;;;19.70;99.90;;;;;;4993214;28;20311;-85
2022/10/23 10:14:37;;;;;;;7.45;1.58;;;19.90;99.90;;;;;;4993243;28;20196;-83
2022/10/23 10:17:12;;;;;;;6.68;2.67;;;19.80;99.90;;;;;;4993808;28;20611;-76
2022/10/23 10:20:14;;;;;;;5.28;2.05;;;19.70;99.90;;;;;;4993009;28;20172;-77
2022/10/23 10:23:02;;;;;;;4.10;1.75;;;19.70;99.90;;;;;;4992300;28;20175;-80
2022/10/23 10:25:47;;;;;;;3.10;2.42;;;19.80;99.90;;;;;;4993337;28;20219;-78
2022/10/23 10:28:51;;;;;;;2.97;2.08;;;19.90;99.90;;;;;;4993448;28;20243;-78
2022/10/23 10:31:30;;;;;;;6.50;2.30;;;20.00;99.90;;;;;;4993325;28;20183;-78
2022/10/23 10:34:19;;;;;;;2.60;1.98;;;20.10;99.90;;;;;;4992988;28;20196;-81
2022/10/23 10:36:50;;;;;;;5.93;2.25;;;20.00;99.90;;;;;;4991331;28;20284;-78
2022/10/23 10:39:23;;;;;;;2.60;2.38;;;20.00;99.90;;;;;;4994899;28;20174;-79
2022/10/23 10:41:52;;;;;;;6.88;2.08;;;20.00;99.90;;;;;;4993627;28;20244;-84
2022/10/23 10:44:45;;;;;;;12.10;2.20;;;20.00;99.90;;;;;;4992074;28;20520;-80
2022/10/23 10:47:20;;;;;;;11.75;2.38;;;20.10;99.90;;;;;;4993246;28;20339;-78
2022/10/23 10:50:02;;;;;;;12.07;2.40;;;20.20;99.90;;;;;;4993858;28;20244;-78
2022/10/23 10:52:40;;;;;;;4.88;2.08;;;20.20;99.90;;;;;;4991956;28;20177;-78
2022/10/23 10:55:23;;;;;;;5.10;2.17;;;20.30;99.90;;;;;;4993423;28;20169;-77
2022/10/23 10:58:01;;;;;;;4.57;2.65;;;20.40;99.90;;;;;;4991544;28;20283;-77
2022/10/23 11:00:30;;;;;;;10.55;2.20;;;20.30;99.90;;;;;;4991936;28;20604;-86
2022/10/23 11:03:23;;;;;;;4.82;2.42;;;20.30;99.90;;;;;;4992799;28;20654;-77
2022/10/23 11:05:51;;;;;;;9.27;2.80;;;20.40;99.90;;;;;;4991387;28;20217;-77
2022/10/23 11:08:30;;;;;;;3.33;2.00;;;20.60;99.90;;;;;;4992977;28;20161;-76
2022/10/23 11:11:00;;;;;;;7.82;2.22;;;20.40;99.90;;;;;;4992711;28;20165;-77
2022/10/23 11:13:41;;;;;;;13.15;2.30;;;20.40;99.90;;;;;;4992788;28;20223;-77
2022/10/23 11:16:22;;;;;;;12.82;2.45;;;20.50;99.90;;;;;;4993343;28;20201;-77
2022/10/23 11:19:00;;;;;;;13.45;2.25;;;20.50;99.90;;;;;;4992872;28;20256;-77
2022/10/23 11:21:46;;;;;;;14.38;2.65;;;20.30;99.90;;;;;;4993648;28;20204;-77
2022/10/23 11:24:26;;;;;;;10.00;2.45;;;20.50;99.90;;;;;;4995827;28;20176;-77
2022/10/23 11:27:21;;;;;;;5.63;2.67;;;20.70;99.90;;;;;;4996616;28;20684;-82
2022/10/23 11:30:21;;;;;;;3.92;2.55;;;20.80;99.90;;;;;;4995395;28;20185;-77
2022/10/23 11:32:56;;;;;;;8.57;2.40;;;20.90;99.90;;;;;;4995053;28;20169;-78
2022/10/23 11:35:56;;;;;;;4.22;2.30;;;21.00;99.90;;;;;;4996470;28;20196;-77
2022/10/23 11:38:32;;;;;;;5.53;1.95;;;21.20;99.90;;;;;;4995112;28;20617;-77
2022/10/23 11:41:04;;;;;;;7.70;2.90;;;21.10;99.90;;;;;;4996174;28;20665;-77
2022/10/23 11:43:33;;;;;;;7.55;2.63;;;21.10;99.90;;;;;;4996063;28;20165;-78
2022/10/23 11:46:28;;;;;;;8.02;2.50;;;21.00;99.90;;;;;;4996134;28;20201;-77
2022/10/23 11:48:55;;;;;;;4.78;2.45;;;21.00;99.90;;;;;;4996137;28;20164;-89
2022/10/23 11:51:35;;;;;;;8.52;2.53;;;20.70;99.90;;;;;;4996081;28;20165;-77
2022/10/23 11:54:12;;;;;;;6.78;2.38;;;20.90;99.90;;;;;;4995878;28;20180;-77
2022/10/23 11:56:53;;;;;;;6.82;2.55;;;20.90;99.90;;;;;;4996010;28;20254;-77
2022/10/23 11:59:30;;;;;;;10.38;2.10;;;21.00;99.90;;;;;;4995778;28;20500;-77
2022/10/23 12:01:58;;;;;;;4.13;2.03;;;21.10;99.90;;;;;;4995572;28;20172;-77
2022/10/23 12:04:39;;;;;;;6.25;1.70;;;21.20;99.90;;;;;;4995678;28;20177;-77
2022/10/23 12:07:26;;;;;;;7.18;2.15;;;21.20;99.90;;;;;;4996011;28;20255;-78
2022/10/23 12:10:19;;;;;;;6.82;1.83;;;21.20;99.90;;;;;;4995773;28;20167;-77
2022/10/23 12:12:56;;;;;;;3.08;1.55;;;21.10;99.90;;;;;;4995784;28;20224;-77
2022/10/23 12:15:23;;;;;;;5.60;2.00;;;21.10;99.90;;;;;;4995717;28;20185;-77
2022/10/23 12:17:51;;;;;;;5.10;1.88;;;21.20;99.90;;;;;;4994228;28;20193;-81
2022/10/23 12:20:47;;;;;;;6.43;2.13;;;21.20;99.90;;;;;;4995494;28;20627;-77
2022/10/23 12:23:32;;;;;;;5.28;2.10;;;21.30;99.90;;;;;;4995112;28;20165;-77
2022/10/23 12:26:08;;;;;;;12.98;2.10;;;21.40;99.90;;;;;;4994214;28;20272;-77
2022/10/23 12:28:52;;;;;;;5.82;2.50;;;21.40;99.90;;;;;;4995546;28;20176;-77
2022/10/23 12:31:44;;;;;;;3.25;2.00;;;21.30;99.90;;;;;;4995184;28;20516;-77
2022/10/23 12:34:38;;;;;;;9.23;2.30;;;21.50;99.90;;;;;;4994628;28;20935;-77
2022/10/23 12:37:27;;;;;;;6.70;2.00;;;21.50;99.90;;;;;;4995029;28;20534;-77
2022/10/23 12:39:58;;;;;;;6.28;1.90;;;21.50;99.90;;;;;;4995749;28;20169;-77
2022/10/23 12:42:26;;;;;;;9.95;2.28;;;21.70;99.90;;;;;;4995297;28;20166;-77
2022/10/23 12:45:17;;;;;;;3.47;2.10;;;21.90;99.90;;;;;;4995240;28;20173;-77
2022/10/23 12:47:45;;;;;;;2.67;1.60;;;21.80;99.90;;;;;;4995455;28;20683;-77
2022/10/23 12:50:26;;;;;;;6.07;1.73;;;21.90;99.90;;;;;;4995086;28;20208;-77
2022/10/23 12:53:07;;;;;;;4.75;1.88;;;21.90;99.90;;;;;;4994620;28;20617;-77
2022/10/23 12:56:03;;;;;;;9.05;1.88;;;22.20;99.90;;;;;;4995134;28;20243;-77
2022/10/23 12:58:32;;;;;;;5.80;2.38;;;22.30;99.90;;;;;;4994973;28;20181;-77
2022/10/23 13:01:02;;;;;;;6.43;1.63;;;22.20;99.90;;;;;;4996531;28;20244;-76
2022/10/23 13:03:29;;;;;;;2.47;1.50;;;22.10;99.90;;;;;;4994626;28;20558;-77
2022/10/23 13:05:57;;;;;;;9.25;2.25;;;22.30;99.90;;;;;;4994350;28;20296;-78
2022/10/23 13:08:28;;;;;;;11.18;2.10;;;22.30;99.90;;;;;;4994558;28;20552;-78